createdAt,value
2022-09-30T00:01:55.971Z,98.95
2022-09-30T00:04:26.204Z,99.29
2022-09-30T00:06:55.070Z,99.14
2022-09-30T00:09:23.743Z,99.35
2022-09-30T00:11:52.308Z,98.91
2022-09-30T00:14:24.078Z,99.36
2022-09-30T00:16:52.545Z,98.83
2022-09-30T00:19:20.644Z,98.38
2022-09-30T00:21:48.706Z,98.09
2022-09-30T00:24:17.238Z,97.43
2022-09-30T00:26:45.791Z,97.38
2022-09-30T00:29:14.129Z,97.18
2022-09-30T00:31:42.844Z,97.49
2022-09-30T00:34:12.198Z,98.43
2022-09-30T00:36:43.689Z,98.97
2022-09-30T00:39:18.615Z,98.95
2022-09-30T00:41:49.995Z,99.61
2022-09-30T00:45:18.043Z,99.65
2022-09-30T00:47:57.349Z,99.33
2022-09-30T00:50:37.602Z,99.37
2022-09-30T00:53:31.609Z,99.10
2022-09-30T00:56:22.814Z,99.18
2022-09-30T00:59:16.360Z,99.36
2022-09-30T01:01:45.283Z,99.31
2022-09-30T01:04:21.888Z,98.51
2022-09-30T01:06:50.684Z,99.04
2022-09-30T01:09:20.040Z,98.95
2022-09-30T01:11:49.465Z,99.13
2022-09-30T01:14:25.126Z,98.57
2022-09-30T01:17:27.639Z,98.82
2022-09-30T01:20:21.806Z,98.55
2022-09-30T01:23:10.476Z,97.75
2022-09-30T01:26:14.291Z,98.54
2022-09-30T01:28:54.334Z,98.82
2022-09-30T01:31:37.968Z,99.49
2022-09-30T01:34:36.390Z,99.00
2022-09-30T01:37:09.093Z,98.15
2022-09-30T01:40:22.753Z,97.60
2022-09-30T01:43:06.077Z,97.43
2022-09-30T01:45:50.808Z,98.07
2022-09-30T01:48:47.701Z,98.83
2022-09-30T01:51:32.051Z,99.15
2022-09-30T01:54:30.214Z,99.15
2022-09-30T01:57:11.042Z,99.34
2022-09-30T01:59:47.766Z,99.42
2022-09-30T02:02:25.468Z,99.45
2022-09-30T02:05:03.084Z,99.69
2022-09-30T02:07:56.405Z,98.67
2022-09-30T02:10:53.198Z,99.00
2022-09-30T02:13:36.123Z,98.71
2022-09-30T02:16:13.967Z,99.10
2022-09-30T02:18:50.622Z,99.30
2022-09-30T02:21:25.357Z,99.27
2022-09-30T02:24:00.948Z,99.15
2022-09-30T02:26:34.319Z,98.54
2022-09-30T02:29:22.368Z,98.33
2022-09-30T02:31:56.074Z,98.03
2022-09-30T02:34:41.819Z,98.04
2022-09-30T02:37:21.403Z,98.74
2022-09-30T02:40:10.393Z,99.24
2022-09-30T02:42:39.607Z,98.60
2022-09-30T02:45:12.194Z,97.73
2022-09-30T02:48:04.577Z,97.96
2022-09-30T02:51:02.070Z,98.50
2022-09-30T02:53:38.969Z,98.77
2022-09-30T02:56:19.277Z,98.79
2022-09-30T02:58:48.754Z,99.21
2022-09-30T03:01:18.485Z,99.68
2022-09-30T03:04:09.433Z,99.16
2022-09-30T03:06:38.702Z,98.32
2022-09-30T03:09:07.917Z,98.05
2022-09-30T03:11:37.473Z,98.33
2022-09-30T03:14:11.764Z,99.11
2022-09-30T03:17:08.626Z,99.51
2022-09-30T03:20:18.309Z,99.57
2022-09-30T03:23:06.025Z,98.46
2022-09-30T03:25:48.755Z,98.39
2022-09-30T03:28:32.391Z,98.04
2022-09-30T03:31:16.093Z,97.91
2022-09-30T03:33:44.379Z,98.17
2022-09-30T03:36:12.675Z,98.70
2022-09-30T03:39:25.809Z,99.38
2022-09-30T03:42:17.329Z,99.28
2022-09-30T03:45:06.224Z,98.81
2022-09-30T03:47:42.060Z,97.74
2022-09-30T03:50:13.996Z,97.45
2022-09-30T03:52:42.636Z,98.42
2022-09-30T03:55:12.601Z,98.81
2022-09-30T03:57:41.774Z,99.55
2022-09-30T04:00:10.582Z,100.00
2022-09-30T04:02:38.525Z,99.98
2022-09-30T04:05:07.921Z,98.52
2022-09-30T04:07:36.170Z,98.35
2022-09-30T04:10:05.442Z,98.07
2022-09-30T04:12:34.080Z,97.74
2022-09-30T04:15:02.407Z,97.45
2022-09-30T04:17:31.306Z,97.56
2022-09-30T04:19:59.698Z,98.13
2022-09-30T04:22:28.118Z,98.86
2022-09-30T04:24:56.470Z,98.86
2022-09-30T04:27:24.424Z,99.10
2022-09-30T04:29:52.790Z,98.61
2022-09-30T04:32:22.909Z,98.28
2022-09-30T04:34:51.220Z,97.83
2022-09-30T04:37:19.634Z,97.53
2022-09-30T04:39:48.065Z,97.20
2022-09-30T04:42:17.434Z,97.43
2022-09-30T04:44:46.105Z,97.88
2022-09-30T04:47:15.090Z,99.22
2022-09-30T04:49:43.402Z,99.79
2022-09-30T04:52:11.370Z,100.00
2022-09-30T04:54:39.782Z,99.32
2022-09-30T04:57:08.132Z,98.54
2022-09-30T04:59:36.775Z,98.01
2022-09-30T05:02:05.563Z,98.15
2022-09-30T05:04:34.026Z,98.80
2022-09-30T05:07:03.971Z,98.74
2022-09-30T05:09:32.410Z,99.23
2022-09-30T05:12:02.332Z,100.00
2022-09-30T05:14:31.552Z,99.87
2022-09-30T05:16:59.978Z,99.86
2022-09-30T05:19:28.453Z,99.74
2022-09-30T05:21:57.050Z,99.56
2022-09-30T05:24:25.406Z,99.73
2022-09-30T05:26:53.823Z,99.86
2022-09-30T05:29:22.271Z,99.67
2022-09-30T05:31:50.869Z,99.50
2022-09-30T05:34:18.909Z,99.25
2022-09-30T05:36:47.334Z,99.75
2022-09-30T05:39:15.576Z,99.25
2022-09-30T05:41:44.016Z,98.09
2022-09-30T05:44:12.535Z,98.11
2022-09-30T05:46:40.890Z,99.08
2022-09-30T05:49:08.980Z,99.38
2022-09-30T05:51:37.130Z,100.00
2022-09-30T05:54:05.781Z,99.96
2022-09-30T05:56:34.765Z,99.89
2022-09-30T05:59:03.138Z,99.06
2022-09-30T06:01:31.572Z,98.93
2022-09-30T06:03:59.983Z,98.93
2022-09-30T06:06:28.838Z,98.74
2022-09-30T06:08:57.529Z,98.61
2022-09-30T06:11:25.769Z,99.31
2022-09-30T06:13:53.791Z,99.77
2022-09-30T06:16:24.126Z,99.19
2022-09-30T06:18:52.635Z,99.15
2022-09-30T06:21:21.011Z,99.09
2022-09-30T06:23:49.081Z,99.33
2022-09-30T06:26:17.599Z,99.61
2022-09-30T06:28:46.049Z,100.00
2022-09-30T06:31:14.734Z,100.00
2022-09-30T06:33:43.388Z,100.00
2022-09-30T06:36:11.688Z,99.58
2022-09-30T06:38:40.629Z,98.88
2022-09-30T06:41:09.776Z,99.30
2022-09-30T06:43:42.364Z,99.33
2022-09-30T06:46:30.626Z,99.36
2022-09-30T06:49:22.669Z,99.67
2022-09-30T06:51:47.987Z,99.98
2022-09-30T06:54:15.927Z,100.00
2022-09-30T06:56:44.053Z,99.87
2022-09-30T06:59:12.783Z,99.99
2022-09-30T07:01:42.260Z,99.45
2022-09-30T07:04:13.439Z,99.18
2022-09-30T07:06:41.886Z,99.12
2022-09-30T07:09:12.255Z,99.27
2022-09-30T07:11:40.514Z,99.34
2022-09-30T07:14:10.228Z,99.17
2022-09-30T07:16:38.638Z,98.94
2022-09-30T07:19:09.012Z,98.85
2022-09-30T07:21:37.462Z,98.77
2022-09-30T07:24:05.807Z,98.56
2022-09-30T07:26:38.000Z,97.63
2022-09-30T07:29:07.273Z,97.42
2022-09-30T07:31:36.185Z,97.12
2022-09-30T07:34:08.158Z,96.90
2022-09-30T07:36:38.153Z,96.71
2022-09-30T07:39:10.478Z,97.05
2022-09-30T07:41:41.237Z,96.52
2022-09-30T07:44:15.153Z,96.78
2022-09-30T07:46:45.277Z,96.34
2022-09-30T07:49:24.415Z,96.01
2022-09-30T07:51:56.494Z,95.81
2022-09-30T07:54:31.903Z,95.39
2022-09-30T07:57:10.546Z,94.97
2022-09-30T07:59:42.044Z,94.80
2022-09-30T08:02:19.825Z,94.13
2022-09-30T08:04:48.194Z,94.04
2022-09-30T08:07:18.440Z,93.79
2022-09-30T08:09:47.015Z,93.56
2022-09-30T08:12:15.511Z,93.52
2022-09-30T08:14:44.807Z,93.03
2022-09-30T08:17:13.686Z,93.00
2022-09-30T08:19:44.818Z,92.97
2022-09-30T08:22:14.152Z,92.73
2022-09-30T08:24:42.784Z,92.52
2022-09-30T08:27:11.220Z,91.92
2022-09-30T08:29:57.329Z,91.54
2022-09-30T08:32:25.641Z,90.92
2022-09-30T08:34:53.610Z,90.50
2022-09-30T08:37:21.988Z,89.66
2022-09-30T08:39:51.499Z,88.99
2022-09-30T08:42:39.522Z,88.09
2022-09-30T08:45:31.291Z,87.04
2022-09-30T08:48:18.289Z,86.19
2022-09-30T08:51:29.190Z,85.54
2022-09-30T08:54:02.451Z,84.96
2022-09-30T08:56:34.788Z,84.36
2022-09-30T08:59:36.093Z,84.57
2022-09-30T09:02:29.392Z,85.44
2022-09-30T09:05:04.926Z,85.33
2022-09-30T09:07:33.253Z,85.58
2022-09-30T09:10:39.236Z,85.34
2022-09-30T09:13:33.586Z,84.98
2022-09-30T09:16:10.420Z,84.81
2022-09-30T09:19:08.406Z,85.26
2022-09-30T09:22:01.914Z,85.57
2022-09-30T09:24:46.161Z,85.41
2022-09-30T09:27:56.549Z,84.15
2022-09-30T09:30:33.353Z,83.78
2022-09-30T09:33:23.071Z,83.69
2022-09-30T09:36:12.906Z,82.98
2022-09-30T09:39:35.674Z,82.91
2022-09-30T09:42:51.684Z,83.36
2022-09-30T09:45:45.978Z,83.36
2022-09-30T09:48:17.550Z,82.86
2022-09-30T09:51:33.671Z,82.08
2022-09-30T09:54:03.240Z,81.65
2022-09-30T09:56:33.657Z,81.51
2022-09-30T09:59:20.555Z,80.66
2022-09-30T10:01:54.594Z,79.54
2022-09-30T10:04:30.539Z,78.78
2022-09-30T10:07:23.169Z,78.97
2022-09-30T10:10:23.418Z,78.83
2022-09-30T10:12:52.346Z,78.35
2022-09-30T10:15:26.513Z,78.19
2022-09-30T10:18:01.838Z,78.21
2022-09-30T10:20:34.699Z,77.73
2022-09-30T10:23:28.654Z,76.72
2022-09-30T10:26:16.828Z,75.01
2022-09-30T10:29:04.445Z,74.58
2022-09-30T10:31:46.472Z,73.23
2022-09-30T10:34:40.190Z,72.00
2022-09-30T10:37:23.651Z,71.58
2022-09-30T10:40:09.049Z,72.06
2022-09-30T10:42:42.028Z,72.15
2022-09-30T10:45:21.483Z,72.10
2022-09-30T10:47:54.783Z,70.72
2022-09-30T10:50:27.743Z,71.97
2022-09-30T10:52:59.141Z,72.76
2022-09-30T10:55:36.087Z,72.57
2022-09-30T10:59:05.482Z,69.31
2022-09-30T11:01:52.615Z,68.33
2022-09-30T11:04:31.609Z,68.72
2022-09-30T11:07:33.860Z,68.50
2022-09-30T11:10:27.550Z,69.97
2022-09-30T11:13:12.262Z,68.42
2022-09-30T11:16:15.331Z,69.77
2022-09-30T11:18:50.263Z,71.28
2022-09-30T11:21:35.497Z,71.95
2022-09-30T11:24:15.518Z,73.01
2022-09-30T11:26:50.963Z,71.69
2022-09-30T11:29:42.825Z,70.23
2022-09-30T11:32:53.577Z,71.50
2022-09-30T11:35:55.700Z,70.55
2022-09-30T11:38:48.005Z,68.44
2022-09-30T11:41:37.829Z,69.73
2022-09-30T11:44:24.304Z,69.38
2022-09-30T11:47:11.431Z,69.51
2022-09-30T11:50:00.436Z,65.47
2022-09-30T11:52:40.138Z,65.75
2022-09-30T11:55:28.967Z,67.53
2022-09-30T11:58:39.396Z,67.65
2022-09-30T12:01:23.801Z,67.88
2022-09-30T12:04:29.344Z,65.89
2022-09-30T12:07:19.846Z,67.24
2022-09-30T12:09:54.782Z,67.46
2022-09-30T12:12:24.025Z,68.46
2022-09-30T12:15:05.807Z,67.83
2022-09-30T12:17:46.755Z,66.91
2022-09-30T12:20:39.655Z,66.44
2022-09-30T12:23:07.963Z,67.67
2022-09-30T12:26:04.230Z,66.21
2022-09-30T12:29:23.791Z,66.82
2022-09-30T12:32:34.725Z,67.33
2022-09-30T12:35:21.481Z,67.30
2022-09-30T12:38:32.521Z,67.48
2022-09-30T12:41:39.197Z,67.55
2022-09-30T12:44:48.592Z,67.05
2022-09-30T12:47:35.286Z,64.90
2022-09-30T12:50:08.316Z,65.66
2022-09-30T12:52:38.400Z,65.43
2022-09-30T12:55:11.045Z,66.48
2022-09-30T12:57:43.096Z,66.68
2022-09-30T13:00:40.386Z,67.00
2022-09-30T13:03:19.184Z,67.33
2022-09-30T13:05:59.338Z,63.66
2022-09-30T13:08:47.385Z,64.73
2022-09-30T13:11:42.942Z,65.68
2022-09-30T13:14:39.660Z,65.34
2022-09-30T13:17:10.523Z,65.47
2022-09-30T13:19:54.700Z,65.22
2022-09-30T13:22:24.698Z,67.92
2022-09-30T13:25:00.362Z,68.92
2022-09-30T13:27:43.067Z,68.20
2022-09-30T13:30:16.978Z,67.42
2022-09-30T13:32:51.538Z,67.96
2022-09-30T13:35:34.846Z,69.92
2022-09-30T13:38:14.770Z,70.08
2022-09-30T13:41:05.564Z,71.75
2022-09-30T13:43:53.345Z,71.41
2022-09-30T13:46:44.386Z,68.47
2022-09-30T13:49:40.917Z,67.75
2022-09-30T13:52:25.499Z,67.97
2022-09-30T13:54:55.271Z,67.87
2022-09-30T13:58:03.173Z,67.63
2022-09-30T14:01:21.555Z,67.75
2022-09-30T14:04:06.491Z,68.31
2022-09-30T14:07:09.069Z,69.32
2022-09-30T14:09:51.611Z,69.13
2022-09-30T14:12:25.764Z,69.85
2022-09-30T14:15:24.342Z,70.06
2022-09-30T14:18:31.743Z,70.00
2022-09-30T14:21:42.846Z,68.91
2022-09-30T14:24:18.357Z,67.79
2022-09-30T14:27:34.616Z,67.32
2022-09-30T14:30:20.478Z,67.44
2022-09-30T14:33:07.277Z,68.43
2022-09-30T14:35:37.591Z,69.18
2022-09-30T14:38:29.669Z,70.16
2022-09-30T14:41:07.971Z,70.10
2022-09-30T14:43:43.076Z,70.99
2022-09-30T14:46:39.882Z,71.00
2022-09-30T14:49:14.482Z,69.66
2022-09-30T14:51:50.565Z,70.82
2022-09-30T14:54:26.638Z,71.05
2022-09-30T14:56:55.619Z,70.75
2022-09-30T14:59:31.365Z,69.90
2022-09-30T15:02:12.267Z,69.69
2022-09-30T15:04:52.061Z,69.92
2022-09-30T15:07:20.782Z,69.78
2022-09-30T15:09:50.911Z,70.16
2022-09-30T15:12:25.584Z,70.41
2022-09-30T15:14:59.828Z,70.63
2022-09-30T15:17:39.371Z,69.85
2022-09-30T15:20:28.207Z,69.52
2022-09-30T15:22:59.923Z,69.68
2022-09-30T15:25:29.521Z,70.18
2022-09-30T15:27:57.987Z,70.23
2022-09-30T15:30:30.586Z,70.57
2022-09-30T15:33:06.360Z,70.58
2022-09-30T15:35:35.042Z,71.19
2022-09-30T15:38:21.518Z,71.70
2022-09-30T15:41:12.804Z,71.73
2022-09-30T15:43:50.760Z,71.94
2022-09-30T15:46:20.407Z,71.14
2022-09-30T15:48:49.930Z,70.35
2022-09-30T15:51:41.466Z,69.95
2022-09-30T15:54:39.251Z,69.92
2022-09-30T15:57:45.762Z,69.67
2022-09-30T16:00:40.202Z,69.58
2022-09-30T16:03:20.223Z,68.98
2022-09-30T16:05:53.759Z,68.90
2022-09-30T16:08:29.153Z,68.93
2022-09-30T16:10:59.696Z,69.21
2022-09-30T16:13:30.685Z,69.37
2022-09-30T16:15:59.327Z,69.46
2022-09-30T16:18:34.030Z,70.21
2022-09-30T16:21:06.721Z,70.60
2022-09-30T16:23:39.077Z,71.70
2022-09-30T16:26:30.901Z,72.39
2022-09-30T16:29:05.018Z,73.36
2022-09-30T16:31:36.815Z,74.29
2022-09-30T16:34:05.233Z,74.60
2022-09-30T16:36:34.339Z,75.54
2022-09-30T16:39:03.010Z,76.22
2022-09-30T16:41:31.359Z,76.40
2022-09-30T16:43:59.563Z,77.10
2022-09-30T16:46:28.068Z,77.78
2022-09-30T16:48:56.394Z,78.21
2022-09-30T16:51:24.861Z,78.53
2022-09-30T16:53:53.167Z,79.02
2022-09-30T16:56:22.024Z,79.61
2022-09-30T16:58:50.436Z,80.08
2022-09-30T17:01:22.215Z,80.30
2022-09-30T17:03:51.202Z,80.46
2022-09-30T17:06:22.027Z,80.99
2022-09-30T17:08:50.826Z,81.29
2022-09-30T17:11:19.588Z,81.38
2022-09-30T17:13:48.323Z,81.32
2022-09-30T17:16:16.968Z,81.61
2022-09-30T17:18:45.661Z,82.21
2022-09-30T17:21:14.092Z,82.01
2022-09-30T17:23:42.062Z,82.06
2022-09-30T17:26:10.448Z,81.97
2022-09-30T17:28:38.887Z,82.08
2022-09-30T17:31:08.463Z,83.06
2022-09-30T17:33:42.290Z,83.65
2022-09-30T17:36:13.570Z,84.01
2022-09-30T17:38:41.987Z,84.15
2022-09-30T17:41:31.717Z,83.91
2022-09-30T17:44:02.465Z,84.59
2022-09-30T17:46:46.086Z,84.81
2022-09-30T17:49:17.003Z,84.72
2022-09-30T17:51:47.960Z,84.72
2022-09-30T17:54:16.337Z,85.10
2022-09-30T17:56:44.901Z,85.20
2022-09-30T17:59:13.220Z,85.47
2022-09-30T18:01:41.874Z,86.09
2022-09-30T18:04:10.259Z,86.40
2022-09-30T18:06:38.625Z,87.04
2022-09-30T18:09:07.095Z,86.94
2022-09-30T18:11:42.029Z,87.24
2022-09-30T18:14:12.767Z,87.58
2022-09-30T18:16:41.555Z,87.46
2022-09-30T18:19:10.187Z,87.93
2022-09-30T18:21:39.341Z,88.07
2022-09-30T18:24:08.288Z,88.19
2022-09-30T18:26:37.113Z,88.56
2022-09-30T18:29:06.172Z,89.19
2022-09-30T18:31:36.943Z,89.20
2022-09-30T18:34:06.645Z,89.14
2022-09-30T18:36:37.258Z,89.18
2022-09-30T18:39:05.950Z,89.99
2022-09-30T18:41:36.008Z,90.29
2022-09-30T18:44:05.181Z,90.59
2022-09-30T18:46:48.055Z,90.43
2022-09-30T18:49:16.456Z,91.44
2022-09-30T18:51:44.919Z,91.37
2022-09-30T18:54:15.371Z,91.26
2022-09-30T18:56:45.978Z,91.33
2022-09-30T18:59:20.790Z,91.39
2022-09-30T19:01:52.334Z,91.47
2022-09-30T19:04:20.725Z,91.73
2022-09-30T19:06:50.013Z,91.55
2022-09-30T19:09:18.482Z,91.41
2022-09-30T19:11:48.100Z,92.03
2022-09-30T19:14:16.999Z,92.48
2022-09-30T19:16:46.125Z,93.00
2022-09-30T19:19:15.520Z,92.80
2022-09-30T19:21:44.927Z,92.32
2022-09-30T19:24:13.279Z,92.89
2022-09-30T19:26:41.865Z,93.05
2022-09-30T19:29:12.171Z,93.33
2022-09-30T19:31:40.686Z,93.45
2022-09-30T19:34:11.266Z,93.03
2022-09-30T19:36:50.385Z,93.06
2022-09-30T19:39:19.963Z,93.68
2022-09-30T19:41:48.362Z,94.13
2022-09-30T19:44:19.978Z,94.00
2022-09-30T19:46:52.283Z,94.07
2022-09-30T19:49:21.684Z,93.70
2022-09-30T19:51:52.421Z,93.62
2022-09-30T19:54:36.773Z,93.94
2022-09-30T19:57:08.437Z,94.57
2022-09-30T19:59:36.761Z,94.94
2022-09-30T20:02:04.906Z,94.65
2022-09-30T20:04:34.326Z,94.49
2022-09-30T20:07:02.276Z,94.37
2022-09-30T20:09:30.697Z,94.72
2022-09-30T20:11:59.074Z,95.20
2022-09-30T20:14:44.952Z,95.22
2022-09-30T20:17:13.242Z,95.32
2022-09-30T20:19:41.664Z,95.14
2022-09-30T20:22:09.994Z,94.97
2022-09-30T20:24:39.608Z,95.23
2022-09-30T20:27:08.446Z,95.81
2022-09-30T20:29:36.499Z,95.89
2022-09-30T20:32:05.064Z,95.92
2022-09-30T20:34:37.977Z,95.98
2022-09-30T20:37:06.673Z,95.83
2022-09-30T20:39:35.695Z,96.24
2022-09-30T20:42:03.983Z,96.36
2022-09-30T20:44:33.185Z,96.60
2022-09-30T20:47:16.782Z,96.63
2022-09-30T20:49:45.122Z,96.29
2022-09-30T20:52:14.649Z,96.71
2022-09-30T20:54:43.021Z,96.47
2022-09-30T20:57:11.418Z,96.73
2022-09-30T20:59:39.830Z,97.04
2022-09-30T21:02:08.335Z,96.87
2022-09-30T21:04:36.792Z,96.85
2022-09-30T21:07:06.864Z,97.35
2022-09-30T21:09:35.918Z,97.11
2022-09-30T21:12:04.342Z,97.22
2022-09-30T21:14:32.669Z,97.93
2022-09-30T21:17:00.985Z,98.46
2022-09-30T21:19:31.481Z,98.63
2022-09-30T21:21:59.743Z,98.83
2022-09-30T21:24:39.904Z,98.90
2022-09-30T21:27:08.303Z,98.70
2022-09-30T21:29:36.723Z,98.92
2022-09-30T21:32:05.204Z,99.34
2022-09-30T21:34:34.062Z,99.37
2022-09-30T21:37:02.982Z,99.61
2022-09-30T21:39:31.367Z,99.69
2022-09-30T21:41:59.664Z,99.85
2022-09-30T21:44:28.160Z,99.57
2022-09-30T21:46:56.494Z,99.34
2022-09-30T21:49:25.369Z,99.60
2022-09-30T21:51:54.093Z,99.87
2022-09-30T21:54:23.386Z,99.99
2022-09-30T21:56:52.203Z,100.00
2022-09-30T21:59:20.598Z,100.00
2022-09-30T22:01:48.948Z,100.00
2022-09-30T22:04:19.497Z,100.00
2022-09-30T22:06:48.196Z,99.99
2022-09-30T22:09:17.190Z,100.00
2022-09-30T22:11:45.604Z,99.71
2022-09-30T22:14:13.975Z,99.73
2022-09-30T22:16:42.653Z,99.66
2022-09-30T22:19:11.301Z,99.54
2022-09-30T22:21:39.657Z,99.57
2022-09-30T22:24:10.132Z,99.36
2022-09-30T22:26:38.556Z,99.51
2022-09-30T22:29:11.001Z,100.00
2022-09-30T22:31:39.678Z,100.00
2022-09-30T22:34:28.082Z,100.00
2022-09-30T22:37:13.779Z,99.98
2022-09-30T22:39:42.100Z,100.00
2022-09-30T22:42:10.387Z,100.00
2022-09-30T22:44:39.200Z,100.00
2022-09-30T22:47:10.979Z,100.00
2022-09-30T22:49:38.953Z,99.69
2022-09-30T22:52:07.659Z,99.90
2022-09-30T22:54:37.745Z,100.00
2022-09-30T22:57:07.885Z,100.00
2022-09-30T22:59:36.254Z,100.00
2022-09-30T23:02:05.299Z,100.00
2022-09-30T23:04:34.088Z,100.00
2022-09-30T23:07:02.462Z,100.00
2022-09-30T23:09:31.175Z,100.00
2022-09-30T23:11:59.549Z,100.00
2022-09-30T23:14:27.552Z,100.00
2022-09-30T23:16:56.099Z,100.00
2022-09-30T23:19:24.473Z,100.00
2022-09-30T23:21:52.763Z,100.00
2022-09-30T23:24:21.113Z,100.00
2022-09-30T23:26:49.822Z,100.00
2022-09-30T23:29:18.625Z,100.00
2022-09-30T23:31:46.992Z,100.00
2022-09-30T23:34:15.409Z,100.00
2022-09-30T23:36:43.687Z,100.00
2022-09-30T23:39:20.276Z,100.00
2022-09-30T23:41:50.044Z,100.00
2022-09-30T23:44:19.210Z,100.00
2022-09-30T23:47:06.882Z,100.00
2022-09-30T23:49:36.236Z,99.67
2022-09-30T23:52:12.993Z,99.54
2022-09-30T23:54:45.032Z,99.73
2022-09-30T23:57:13.563Z,99.73
2022-09-30T23:59:41.965Z,99.55
